sensor_id;sensor_type;location;lat;lon;timestamp;P1;durP1;ratioP1;P2;durP2;ratioP2
44536;SDS011;30245;51.966;6.292;2023-09-30T00:02:07;6.95;;;1.23;;
44536;SDS011;30245;51.966;6.292;2023-09-30T00:04:32;6.82;;;1.48;;
44536;SDS011;30245;51.966;6.292;2023-09-30T00:06:58;8.02;;;2.55;;
44536;SDS011;30245;51.966;6.292;2023-09-30T00:09:24;5.13;;;1.58;;
44536;SDS011;30245;51.966;6.292;2023-09-30T00:11:50;5.97;;;2.05;;
44536;SDS011;30245;51.966;6.292;2023-09-30T00:14:15;7.75;;;1.38;;
44536;SDS011;30245;51.966;6.292;2023-09-30T00:16:42;4.30;;;0.93;;
44536;SDS011;30245;51.966;6.292;2023-09-30T00:19:08;3.58;;;1.58;;
44536;SDS011;30245;51.966;6.292;2023-09-30T00:21:34;5.28;;;1.42;;
44536;SDS011;30245;51.966;6.292;2023-09-30T00:24:00;4.25;;;1.83;;
44536;SDS011;30245;51.966;6.292;2023-09-30T00:26:25;5.25;;;1.90;;
44536;SDS011;30245;51.966;6.292;2023-09-30T00:28:51;7.70;;;2.10;;
44536;SDS011;30245;51.966;6.292;2023-09-30T00:31:16;3.25;;;0.85;;
44536;SDS011;30245;51.966;6.292;2023-09-30T00:33:42;5.53;;;1.10;;
44536;SDS011;30245;51.966;6.292;2023-09-30T00:36:08;4.38;;;1.23;;
44536;SDS011;30245;51.966;6.292;2023-09-30T00:38:35;7.35;;;1.90;;
44536;SDS011;30245;51.966;6.292;2023-09-30T00:41:01;6.10;;;1.38;;
44536;SDS011;30245;51.966;6.292;2023-09-30T00:43:27;3.95;;;1.25;;
44536;SDS011;30245;51.966;6.292;2023-09-30T00:45:54;1.88;;;0.90;;
44536;SDS011;30245;51.966;6.292;2023-09-30T00:48:31;6.20;;;2.03;;
44536;SDS011;30245;51.966;6.292;2023-09-30T00:51:00;2.70;;;0.70;;
44536;SDS011;30245;51.966;6.292;2023-09-30T00:53:26;8.85;;;1.25;;
44536;SDS011;30245;51.966;6.292;2023-09-30T00:55:53;7.28;;;1.08;;
44536;SDS011;30245;51.966;6.292;2023-09-30T00:58:21;2.97;;;1.10;;
44536;SDS011;30245;51.966;6.292;2023-09-30T01:00:48;3.35;;;0.82;;
44536;SDS011;30245;51.966;6.292;2023-09-30T01:03:14;7.13;;;1.10;;
44536;SDS011;30245;51.966;6.292;2023-09-30T01:05:40;3.35;;;0.75;;
44536;SDS011;30245;51.966;6.292;2023-09-30T01:08:06;6.72;;;1.38;;
44536;SDS011;30245;51.966;6.292;2023-09-30T01:10:31;5.53;;;1.55;;
44536;SDS011;30245;51.966;6.292;2023-09-30T01:12:57;5.93;;;1.52;;
44536;SDS011;30245;51.966;6.292;2023-09-30T01:15:23;3.72;;;0.90;;
44536;SDS011;30245;51.966;6.292;2023-09-30T01:17:49;4.55;;;1.38;;
44536;SDS011;30245;51.966;6.292;2023-09-30T01:20:14;7.85;;;1.48;;
44536;SDS011;30245;51.966;6.292;2023-09-30T01:22:44;4.22;;;1.42;;
44536;SDS011;30245;51.966;6.292;2023-09-30T01:25:10;3.95;;;1.38;;
44536;SDS011;30245;51.966;6.292;2023-09-30T01:27:36;6.25;;;1.48;;
44536;SDS011;30245;51.966;6.292;2023-09-30T01:30:02;7.82;;;1.45;;
44536;SDS011;30245;51.966;6.292;2023-09-30T01:32:28;4.55;;;1.27;;
44536;SDS011;30245;51.966;6.292;2023-09-30T01:34:53;2.75;;;1.40;;
44536;SDS011;30245;51.966;6.292;2023-09-30T01:37:19;5.13;;;1.42;;
44536;SDS011;30245;51.966;6.292;2023-09-30T01:39:44;3.45;;;0.77;;
44536;SDS011;30245;51.966;6.292;2023-09-30T01:42:10;5.18;;;1.40;;
44536;SDS011;30245;51.966;6.292;2023-09-30T01:44:36;5.38;;;1.38;;
44536;SDS011;30245;51.966;6.292;2023-09-30T01:47:02;6.15;;;1.48;;
44536;SDS011;30245;51.966;6.292;2023-09-30T01:49:27;11.05;;;1.38;;
44536;SDS011;30245;51.966;6.292;2023-09-30T01:51:53;5.38;;;1.25;;
44536;SDS011;30245;51.966;6.292;2023-09-30T01:54:19;6.50;;;1.60;;
44536;SDS011;30245;51.966;6.292;2023-09-30T01:56:44;5.55;;;1.92;;
44536;SDS011;30245;51.966;6.292;2023-09-30T01:59:10;5.63;;;1.48;;
44536;SDS011;30245;51.966;6.292;2023-09-30T02:01:35;5.85;;;1.83;;
44536;SDS011;30245;51.966;6.292;2023-09-30T02:04:01;3.50;;;1.23;;
44536;SDS011;30245;51.966;6.292;2023-09-30T02:06:27;6.05;;;1.92;;
44536;SDS011;30245;51.966;6.292;2023-09-30T02:08:53;3.25;;;1.23;;
44536;SDS011;30245;51.966;6.292;2023-09-30T02:11:18;4.18;;;1.77;;
44536;SDS011;30245;51.966;6.292;2023-09-30T02:13:44;8.65;;;1.88;;
44536;SDS011;30245;51.966;6.292;2023-09-30T02:16:13;7.57;;;2.20;;
44536;SDS011;30245;51.966;6.292;2023-09-30T02:18:39;6.22;;;1.35;;
44536;SDS011;30245;51.966;6.292;2023-09-30T02:21:06;4.88;;;1.63;;
44536;SDS011;30245;51.966;6.292;2023-09-30T02:23:34;4.77;;;0.97;;
44536;SDS011;30245;51.966;6.292;2023-09-30T02:25:59;4.80;;;0.80;;
44536;SDS011;30245;51.966;6.292;2023-09-30T02:28:25;4.93;;;1.83;;
44536;SDS011;30245;51.966;6.292;2023-09-30T02:30:51;4.85;;;2.00;;
44536;SDS011;30245;51.966;6.292;2023-09-30T02:33:17;4.22;;;1.42;;
44536;SDS011;30245;51.966;6.292;2023-09-30T02:35:43;5.70;;;1.52;;
44536;SDS011;30245;51.966;6.292;2023-09-30T02:38:10;6.38;;;2.38;;
44536;SDS011;30245;51.966;6.292;2023-09-30T02:40:36;4.07;;;1.73;;
44536;SDS011;30245;51.966;6.292;2023-09-30T02:43:03;7.03;;;1.85;;
44536;SDS011;30245;51.966;6.292;2023-09-30T02:45:29;2.63;;;1.20;;
44536;SDS011;30245;51.966;6.292;2023-09-30T02:47:55;5.38;;;1.67;;
44536;SDS011;30245;51.966;6.292;2023-09-30T02:50:20;7.22;;;1.77;;
44536;SDS011;30245;51.966;6.292;2023-09-30T02:52:46;6.57;;;1.52;;
44536;SDS011;30245;51.966;6.292;2023-09-30T02:55:12;6.30;;;1.38;;
44536;SDS011;30245;51.966;6.292;2023-09-30T02:57:38;5.70;;;2.28;;
44536;SDS011;30245;51.966;6.292;2023-09-30T03:00:04;6.60;;;1.98;;
44536;SDS011;30245;51.966;6.292;2023-09-30T03:02:52;3.55;;;1.48;;
44536;SDS011;30245;51.966;6.292;2023-09-30T03:05:18;3.75;;;1.67;;
44536;SDS011;30245;51.966;6.292;2023-09-30T03:07:44;3.97;;;1.50;;
44536;SDS011;30245;51.966;6.292;2023-09-30T03:10:11;4.68;;;1.42;;
44536;SDS011;30245;51.966;6.292;2023-09-30T03:12:38;8.38;;;2.58;;
44536;SDS011;30245;51.966;6.292;2023-09-30T03:15:04;9.57;;;2.72;;
44536;SDS011;30245;51.966;6.292;2023-09-30T03:17:31;6.65;;;1.85;;
44536;SDS011;30245;51.966;6.292;2023-09-30T03:19:57;7.93;;;1.85;;
44536;SDS011;30245;51.966;6.292;2023-09-30T03:22:24;7.38;;;2.00;;
44536;SDS011;30245;51.966;6.292;2023-09-30T03:24:54;4.07;;;1.80;;
44536;SDS011;30245;51.966;6.292;2023-09-30T03:27:21;4.88;;;2.17;;
44536;SDS011;30245;51.966;6.292;2023-09-30T03:29:47;4.10;;;2.53;;
44536;SDS011;30245;51.966;6.292;2023-09-30T03:32:13;5.95;;;2.13;;
44536;SDS011;30245;51.966;6.292;2023-09-30T03:34:38;5.03;;;2.13;;
44536;SDS011;30245;51.966;6.292;2023-09-30T03:37:09;4.80;;;1.63;;
44536;SDS011;30245;51.966;6.292;2023-09-30T03:39:35;4.53;;;2.38;;
44536;SDS011;30245;51.966;6.292;2023-09-30T03:42:00;5.68;;;2.63;;
44536;SDS011;30245;51.966;6.292;2023-09-30T03:44:28;4.93;;;2.35;;
44536;SDS011;30245;51.966;6.292;2023-09-30T03:46:53;6.40;;;2.85;;
44536;SDS011;30245;51.966;6.292;2023-09-30T03:49:19;3.90;;;1.30;;
44536;SDS011;30245;51.966;6.292;2023-09-30T03:51:45;5.07;;;2.35;;
44536;SDS011;30245;51.966;6.292;2023-09-30T03:54:11;8.93;;;2.83;;
44536;SDS011;30245;51.966;6.292;2023-09-30T03:56:37;7.28;;;2.83;;
44536;SDS011;30245;51.966;6.292;2023-09-30T03:59:06;5.28;;;2.88;;
44536;SDS011;30245;51.966;6.292;2023-09-30T04:01:33;6.25;;;1.85;;
44536;SDS011;30245;51.966;6.292;2023-09-30T04:03:59;6.45;;;3.13;;
44536;SDS011;30245;51.966;6.292;2023-09-30T04:06:25;7.45;;;2.72;;
44536;SDS011;30245;51.966;6.292;2023-09-30T04:08:51;6.53;;;2.72;;
44536;SDS011;30245;51.966;6.292;2023-09-30T04:11:16;4.85;;;1.98;;
44536;SDS011;30245;51.966;6.292;2023-09-30T04:13:44;5.45;;;2.72;;
44536;SDS011;30245;51.966;6.292;2023-09-30T04:16:10;5.90;;;2.15;;
44536;SDS011;30245;51.966;6.292;2023-09-30T04:18:36;10.35;;;2.25;;
44536;SDS011;30245;51.966;6.292;2023-09-30T04:21:01;4.07;;;2.08;;
44536;SDS011;30245;51.966;6.292;2023-09-30T04:23:27;5.55;;;2.30;;
44536;SDS011;30245;51.966;6.292;2023-09-30T04:25:53;6.88;;;3.10;;
44536;SDS011;30245;51.966;6.292;2023-09-30T04:28:19;8.30;;;2.88;;
44536;SDS011;30245;51.966;6.292;2023-09-30T04:30:48;7.65;;;2.30;;
44536;SDS011;30245;51.966;6.292;2023-09-30T04:33:15;6.65;;;3.30;;
44536;SDS011;30245;51.966;6.292;2023-09-30T04:35:42;4.00;;;2.33;;
44536;SDS011;30245;51.966;6.292;2023-09-30T04:38:09;9.93;;;3.53;;
44536;SDS011;30245;51.966;6.292;2023-09-30T04:40:35;6.20;;;2.75;;
44536;SDS011;30245;51.966;6.292;2023-09-30T04:43:01;7.20;;;3.80;;
44536;SDS011;30245;51.966;6.292;2023-09-30T04:45:27;3.78;;;2.03;;
44536;SDS011;30245;51.966;6.292;2023-09-30T04:47:53;5.55;;;3.22;;
44536;SDS011;30245;51.966;6.292;2023-09-30T04:50:21;4.70;;;2.10;;
44536;SDS011;30245;51.966;6.292;2023-09-30T04:52:47;6.57;;;2.85;;
44536;SDS011;30245;51.966;6.292;2023-09-30T04:55:13;4.90;;;2.83;;
44536;SDS011;30245;51.966;6.292;2023-09-30T04:57:41;5.07;;;3.05;;
44536;SDS011;30245;51.966;6.292;2023-09-30T05:02:36;5.18;;;2.15;;
44536;SDS011;30245;51.966;6.292;2023-09-30T05:05:02;3.55;;;2.05;;
44536;SDS011;30245;51.966;6.292;2023-09-30T05:07:31;12.38;;;5.65;;
44536;SDS011;30245;51.966;6.292;2023-09-30T05:09:57;7.45;;;2.92;;
44536;SDS011;30245;51.966;6.292;2023-09-30T05:12:22;4.55;;;2.85;;
44536;SDS011;30245;51.966;6.292;2023-09-30T05:14:48;6.40;;;3.92;;
44536;SDS011;30245;51.966;6.292;2023-09-30T05:17:14;6.97;;;3.42;;
44536;SDS011;30245;51.966;6.292;2023-09-30T05:19:40;6.38;;;3.38;;
44536;SDS011;30245;51.966;6.292;2023-09-30T05:22:06;3.97;;;3.40;;
44536;SDS011;30245;51.966;6.292;2023-09-30T05:24:31;8.15;;;3.78;;
44536;SDS011;30245;51.966;6.292;2023-09-30T05:26:57;4.82;;;3.55;;
44536;SDS011;30245;51.966;6.292;2023-09-30T05:29:23;5.88;;;3.60;;
44536;SDS011;30245;51.966;6.292;2023-09-30T05:31:48;4.82;;;3.53;;
44536;SDS011;30245;51.966;6.292;2023-09-30T05:34:14;9.05;;;4.13;;
44536;SDS011;30245;51.966;6.292;2023-09-30T05:36:40;11.27;;;3.85;;
44536;SDS011;30245;51.966;6.292;2023-09-30T05:39:05;8.45;;;3.47;;
44536;SDS011;30245;51.966;6.292;2023-09-30T05:41:31;6.75;;;3.28;;
44536;SDS011;30245;51.966;6.292;2023-09-30T05:43:57;5.45;;;3.80;;
44536;SDS011;30245;51.966;6.292;2023-09-30T05:46:24;6.70;;;4.22;;
44536;SDS011;30245;51.966;6.292;2023-09-30T05:48:49;6.80;;;3.28;;
44536;SDS011;30245;51.966;6.292;2023-09-30T05:51:15;6.80;;;3.42;;
44536;SDS011;30245;51.966;6.292;2023-09-30T05:53:41;8.00;;;3.22;;
44536;SDS011;30245;51.966;6.292;2023-09-30T05:56:07;6.40;;;3.35;;
44536;SDS011;30245;51.966;6.292;2023-09-30T05:58:35;6.60;;;4.22;;
44536;SDS011;30245;51.966;6.292;2023-09-30T06:01:02;5.90;;;3.97;;
44536;SDS011;30245;51.966;6.292;2023-09-30T06:03:32;7.10;;;3.65;;
44536;SDS011;30245;51.966;6.292;2023-09-30T06:05:59;6.15;;;4.07;;
44536;SDS011;30245;51.966;6.292;2023-09-30T06:08:25;6.80;;;4.03;;
44536;SDS011;30245;51.966;6.292;2023-09-30T06:10:50;4.80;;;3.25;;
44536;SDS011;30245;51.966;6.292;2023-09-30T06:13:16;5.68;;;3.33;;
44536;SDS011;30245;51.966;6.292;2023-09-30T06:15:42;7.13;;;3.03;;
44536;SDS011;30245;51.966;6.292;2023-09-30T06:18:08;6.53;;;3.58;;
44536;SDS011;30245;51.966;6.292;2023-09-30T06:20:40;4.78;;;2.97;;
44536;SDS011;30245;51.966;6.292;2023-09-30T06:23:05;6.50;;;3.95;;
44536;SDS011;30245;51.966;6.292;2023-09-30T06:25:31;7.32;;;3.65;;
44536;SDS011;30245;51.966;6.292;2023-09-30T06:27:58;6.78;;;4.25;;
44536;SDS011;30245;51.966;6.292;2023-09-30T06:30:24;8.65;;;3.67;;
44536;SDS011;30245;51.966;6.292;2023-09-30T06:32:58;8.15;;;2.67;;
44536;SDS011;30245;51.966;6.292;2023-09-30T06:35:30;7.13;;;3.60;;
44536;SDS011;30245;51.966;6.292;2023-09-30T06:37:58;6.28;;;3.20;;
44536;SDS011;30245;51.966;6.292;2023-09-30T06:40:24;5.25;;;3.33;;
44536;SDS011;30245;51.966;6.292;2023-09-30T06:42:50;9.30;;;3.90;;
44536;SDS011;30245;51.966;6.292;2023-09-30T06:45:17;6.82;;;3.75;;
44536;SDS011;30245;51.966;6.292;2023-09-30T06:47:42;5.38;;;3.40;;
44536;SDS011;30245;51.966;6.292;2023-09-30T06:50:11;5.35;;;3.50;;
44536;SDS011;30245;51.966;6.292;2023-09-30T06:52:41;10.50;;;3.97;;
44536;SDS011;30245;51.966;6.292;2023-09-30T06:55:07;4.82;;;3.28;;
44536;SDS011;30245;51.966;6.292;2023-09-30T06:57:34;7.35;;;4.05;;
44536;SDS011;30245;51.966;6.292;2023-09-30T07:00:00;7.47;;;3.75;;
44536;SDS011;30245;51.966;6.292;2023-09-30T07:02:34;5.95;;;3.45;;
44536;SDS011;30245;51.966;6.292;2023-09-30T07:05:01;5.10;;;3.20;;
44536;SDS011;30245;51.966;6.292;2023-09-30T07:07:30;5.70;;;3.80;;
44536;SDS011;30245;51.966;6.292;2023-09-30T07:09:56;4.00;;;3.00;;
44536;SDS011;30245;51.966;6.292;2023-09-30T07:12:21;8.05;;;3.25;;
44536;SDS011;30245;51.966;6.292;2023-09-30T07:14:47;3.28;;;2.63;;
44536;SDS011;30245;51.966;6.292;2023-09-30T07:17:12;6.47;;;3.67;;
44536;SDS011;30245;51.966;6.292;2023-09-30T07:19:39;4.93;;;3.78;;
44536;SDS011;30245;51.966;6.292;2023-09-30T07:22:04;5.55;;;3.00;;
44536;SDS011;30245;51.966;6.292;2023-09-30T07:24:30;4.90;;;3.65;;
44536;SDS011;30245;51.966;6.292;2023-09-30T07:26:56;4.82;;;3.33;;
44536;SDS011;30245;51.966;6.292;2023-09-30T07:29:21;8.15;;;3.58;;
44536;SDS011;30245;51.966;6.292;2023-09-30T07:31:48;6.32;;;3.00;;
44536;SDS011;30245;51.966;6.292;2023-09-30T07:34:14;4.30;;;3.15;;
44536;SDS011;30245;51.966;6.292;2023-09-30T07:36:39;10.95;;;3.97;;
44536;SDS011;30245;51.966;6.292;2023-09-30T07:39:05;6.22;;;3.13;;
44536;SDS011;30245;51.966;6.292;2023-09-30T07:41:34;4.88;;;4.32;;
44536;SDS011;30245;51.966;6.292;2023-09-30T07:44:01;5.53;;;4.05;;
44536;SDS011;30245;51.966;6.292;2023-09-30T07:46:27;4.03;;;2.95;;
44536;SDS011;30245;51.966;6.292;2023-09-30T07:48:53;4.70;;;3.42;;
44536;SDS011;30245;51.966;6.292;2023-09-30T07:51:20;11.85;;;5.50;;
44536;SDS011;30245;51.966;6.292;2023-09-30T07:53:45;5.57;;;3.00;;
44536;SDS011;30245;51.966;6.292;2023-09-30T07:56:11;6.55;;;2.97;;
44536;SDS011;30245;51.966;6.292;2023-09-30T07:58:42;5.07;;;3.33;;
44536;SDS011;30245;51.966;6.292;2023-09-30T08:01:09;5.28;;;2.72;;
44536;SDS011;30245;51.966;6.292;2023-09-30T08:03:34;5.90;;;3.00;;
44536;SDS011;30245;51.966;6.292;2023-09-30T08:06:00;8.60;;;4.15;;
44536;SDS011;30245;51.966;6.292;2023-09-30T08:08:27;5.65;;;2.92;;
44536;SDS011;30245;51.966;6.292;2023-09-30T08:10:54;6.00;;;3.30;;
44536;SDS011;30245;51.966;6.292;2023-09-30T08:13:24;4.63;;;2.35;;
44536;SDS011;30245;51.966;6.292;2023-09-30T08:15:49;6.55;;;2.92;;
44536;SDS011;30245;51.966;6.292;2023-09-30T08:18:16;4.95;;;2.55;;
44536;SDS011;30245;51.966;6.292;2023-09-30T08:20:42;6.15;;;2.95;;
44536;SDS011;30245;51.966;6.292;2023-09-30T08:23:08;8.32;;;2.17;;
44536;SDS011;30245;51.966;6.292;2023-09-30T08:25:33;5.65;;;2.00;;
44536;SDS011;30245;51.966;6.292;2023-09-30T08:27:59;7.10;;;2.67;;
44536;SDS011;30245;51.966;6.292;2023-09-30T08:30:25;5.32;;;2.00;;
44536;SDS011;30245;51.966;6.292;2023-09-30T08:32:51;4.60;;;1.45;;
44536;SDS011;30245;51.966;6.292;2023-09-30T08:35:16;4.70;;;2.22;;
44536;SDS011;30245;51.966;6.292;2023-09-30T08:37:42;3.80;;;1.10;;
44536;SDS011;30245;51.966;6.292;2023-09-30T08:40:07;4.03;;;1.92;;
44536;SDS011;30245;51.966;6.292;2023-09-30T08:42:35;3.63;;;1.63;;
44536;SDS011;30245;51.966;6.292;2023-09-30T08:45:01;6.97;;;2.53;;
44536;SDS011;30245;51.966;6.292;2023-09-30T08:47:28;4.60;;;1.98;;
44536;SDS011;30245;51.966;6.292;2023-09-30T08:49:54;3.95;;;1.08;;
44536;SDS011;30245;51.966;6.292;2023-09-30T08:52:30;3.67;;;1.00;;
44536;SDS011;30245;51.966;6.292;2023-09-30T08:54:57;4.80;;;1.40;;
44536;SDS011;30245;51.966;6.292;2023-09-30T08:57:23;3.58;;;1.55;;
44536;SDS011;30245;51.966;6.292;2023-09-30T08:59:50;5.95;;;1.80;;
44536;SDS011;30245;51.966;6.292;2023-09-30T09:02:17;5.47;;;1.33;;
44536;SDS011;30245;51.966;6.292;2023-09-30T09:04:44;2.53;;;1.42;;
44536;SDS011;30245;51.966;6.292;2023-09-30T09:07:14;4.68;;;1.83;;
44536;SDS011;30245;51.966;6.292;2023-09-30T09:09:40;5.88;;;2.20;;
44536;SDS011;30245;51.966;6.292;2023-09-30T09:12:06;7.53;;;2.15;;
44536;SDS011;30245;51.966;6.292;2023-09-30T09:14:43;4.55;;;1.40;;
44536;SDS011;30245;51.966;6.292;2023-09-30T09:17:10;4.05;;;0.95;;
44536;SDS011;30245;51.966;6.292;2023-09-30T09:19:36;3.85;;;1.60;;
44536;SDS011;30245;51.966;6.292;2023-09-30T09:22:02;2.92;;;0.90;;
44536;SDS011;30245;51.966;6.292;2023-09-30T09:24:35;4.35;;;1.35;;
44536;SDS011;30245;51.966;6.292;2023-09-30T09:27:13;3.58;;;1.60;;
44536;SDS011;30245;51.966;6.292;2023-09-30T09:29:42;5.45;;;1.35;;
44536;SDS011;30245;51.966;6.292;2023-09-30T09:34:40;4.82;;;1.42;;
44536;SDS011;30245;51.966;6.292;2023-09-30T09:37:19;2.80;;;1.13;;
44536;SDS011;30245;51.966;6.292;2023-09-30T09:39:56;2.30;;;1.02;;
44536;SDS011;30245;51.966;6.292;2023-09-30T09:42:26;7.55;;;1.70;;
44536;SDS011;30245;51.966;6.292;2023-09-30T09:44:56;2.97;;;0.98;;
44536;SDS011;30245;51.966;6.292;2023-09-30T09:47:24;3.95;;;1.20;;
44536;SDS011;30245;51.966;6.292;2023-09-30T09:49:50;4.38;;;1.20;;
44536;SDS011;30245;51.966;6.292;2023-09-30T09:52:18;6.68;;;1.73;;
44536;SDS011;30245;51.966;6.292;2023-09-30T09:54:44;5.50;;;1.48;;
44536;SDS011;30245;51.966;6.292;2023-09-30T09:57:11;3.65;;;1.20;;
44536;SDS011;30245;51.966;6.292;2023-09-30T09:59:38;4.80;;;1.40;;
44536;SDS011;30245;51.966;6.292;2023-09-30T10:02:14;5.30;;;1.45;;
44536;SDS011;30245;51.966;6.292;2023-09-30T10:04:44;4.50;;;1.30;;
44536;SDS011;30245;51.966;6.292;2023-09-30T10:07:10;3.65;;;1.45;;
44536;SDS011;30245;51.966;6.292;2023-09-30T10:09:52;7.15;;;1.83;;
44536;SDS011;30245;51.966;6.292;2023-09-30T10:12:18;4.55;;;1.55;;
44536;SDS011;30245;51.966;6.292;2023-09-30T10:17:12;5.93;;;1.25;;
44536;SDS011;30245;51.966;6.292;2023-09-30T10:20:02;7.00;;;1.73;;
44536;SDS011;30245;51.966;6.292;2023-09-30T10:22:32;6.00;;;1.38;;
44536;SDS011;30245;51.966;6.292;2023-09-30T10:24:58;4.43;;;0.90;;
44536;SDS011;30245;51.966;6.292;2023-09-30T10:29:54;8.38;;;1.55;;
44536;SDS011;30245;51.966;6.292;2023-09-30T10:35:15;3.22;;;1.40;;
44536;SDS011;30245;51.966;6.292;2023-09-30T10:43:36;2.92;;;1.13;;
44536;SDS011;30245;51.966;6.292;2023-09-30T10:48:53;3.30;;;1.17;;
44536;SDS011;30245;51.966;6.292;2023-09-30T10:51:19;2.42;;;0.70;;
44536;SDS011;30245;51.966;6.292;2023-09-30T10:53:51;5.55;;;1.33;;
44536;SDS011;30245;51.966;6.292;2023-09-30T10:56:21;3.17;;;1.20;;
44536;SDS011;30245;51.966;6.292;2023-09-30T10:58:51;3.42;;;1.17;;
44536;SDS011;30245;51.966;6.292;2023-09-30T11:01:18;8.43;;;1.35;;
44536;SDS011;30245;51.966;6.292;2023-09-30T11:03:45;1.92;;;0.60;;
44536;SDS011;30245;51.966;6.292;2023-09-30T11:06:16;5.90;;;0.70;;
44536;SDS011;30245;51.966;6.292;2023-09-30T11:08:54;2.25;;;0.80;;
44536;SDS011;30245;51.966;6.292;2023-09-30T11:11:34;4.05;;;1.20;;
44536;SDS011;30245;51.966;6.292;2023-09-30T11:14:03;1.95;;;0.60;;
44536;SDS011;30245;51.966;6.292;2023-09-30T11:16:39;4.82;;;1.13;;
44536;SDS011;30245;51.966;6.292;2023-09-30T11:19:06;3.80;;;0.90;;
44536;SDS011;30245;51.966;6.292;2023-09-30T11:21:33;2.17;;;0.70;;
44536;SDS011;30245;51.966;6.292;2023-09-30T11:24:00;4.10;;;0.77;;
44536;SDS011;30245;51.966;6.292;2023-09-30T11:26:32;6.20;;;0.70;;
44536;SDS011;30245;51.966;6.292;2023-09-30T11:29:15;2.53;;;0.65;;
44536;SDS011;30245;51.966;6.292;2023-09-30T11:31:42;3.22;;;0.30;;
44536;SDS011;30245;51.966;6.292;2023-09-30T11:34:09;3.63;;;0.82;;
44536;SDS011;30245;51.966;6.292;2023-09-30T11:36:49;1.73;;;0.50;;
44536;SDS011;30245;51.966;6.292;2023-09-30T11:39:26;2.97;;;0.52;;
44536;SDS011;30245;51.966;6.292;2023-09-30T11:41:54;3.80;;;0.55;;
44536;SDS011;30245;51.966;6.292;2023-09-30T11:46:55;2.40;;;0.57;;
44536;SDS011;30245;51.966;6.292;2023-09-30T11:52:01;5.53;;;0.80;;
44536;SDS011;30245;51.966;6.292;2023-09-30T11:54:34;2.78;;;0.70;;
44536;SDS011;30245;51.966;6.292;2023-09-30T11:57:19;2.90;;;0.65;;
44536;SDS011;30245;51.966;6.292;2023-09-30T11:59:45;2.40;;;0.57;;
44536;SDS011;30245;51.966;6.292;2023-09-30T12:02:12;2.33;;;0.85;;
44536;SDS011;30245;51.966;6.292;2023-09-30T12:04:40;4.20;;;0.80;;
44536;SDS011;30245;51.966;6.292;2023-09-30T12:07:08;2.30;;;0.60;;
44536;SDS011;30245;51.966;6.292;2023-09-30T12:09:33;2.83;;;0.88;;
44536;SDS011;30245;51.966;6.292;2023-09-30T12:12:02;2.92;;;1.08;;
44536;SDS011;30245;51.966;6.292;2023-09-30T12:14:28;2.92;;;0.68;;
44536;SDS011;30245;51.966;6.292;2023-09-30T12:16:55;3.17;;;0.60;;
44536;SDS011;30245;51.966;6.292;2023-09-30T12:19:21;3.08;;;1.10;;
44536;SDS011;30245;51.966;6.292;2023-09-30T12:21:46;1.40;;;0.65;;
44536;SDS011;30245;51.966;6.292;2023-09-30T12:24:16;2.63;;;0.50;;
44536;SDS011;30245;51.966;6.292;2023-09-30T12:26:44;3.95;;;0.73;;
44536;SDS011;30245;51.966;6.292;2023-09-30T12:29:20;2.33;;;0.80;;
44536;SDS011;30245;51.966;6.292;2023-09-30T12:31:53;3.70;;;0.88;;
44536;SDS011;30245;51.966;6.292;2023-09-30T12:34:18;4.28;;;1.05;;
44536;SDS011;30245;51.966;6.292;2023-09-30T12:36:44;2.30;;;0.47;;
44536;SDS011;30245;51.966;6.292;2023-09-30T12:39:10;3.40;;;0.50;;
44536;SDS011;30245;51.966;6.292;2023-09-30T12:41:39;3.65;;;0.68;;
44536;SDS011;30245;51.966;6.292;2023-09-30T12:44:09;4.07;;;0.95;;
44536;SDS011;30245;51.966;6.292;2023-09-30T12:46:35;2.15;;;0.60;;
44536;SDS011;30245;51.966;6.292;2023-09-30T12:49:02;6.13;;;0.70;;
44536;SDS011;30245;51.966;6.292;2023-09-30T12:51:28;4.60;;;0.50;;
44536;SDS011;30245;51.966;6.292;2023-09-30T12:53:54;1.75;;;0.50;;
44536;SDS011;30245;51.966;6.292;2023-09-30T12:56:20;3.67;;;0.57;;
44536;SDS011;30245;51.966;6.292;2023-09-30T12:58:46;1.73;;;0.50;;
44536;SDS011;30245;51.966;6.292;2023-09-30T13:01:12;3.40;;;0.43;;
44536;SDS011;30245;51.966;6.292;2023-09-30T13:03:37;3.95;;;1.00;;
44536;SDS011;30245;51.966;6.292;2023-09-30T13:06:03;5.95;;;1.48;;
44536;SDS011;30245;51.966;6.292;2023-09-30T13:08:29;4.43;;;0.50;;
44536;SDS011;30245;51.966;6.292;2023-09-30T13:10:59;3.25;;;1.33;;
44536;SDS011;30245;51.966;6.292;2023-09-30T13:13:27;2.95;;;0.60;;
44536;SDS011;30245;51.966;6.292;2023-09-30T13:15:53;5.82;;;0.70;;
44536;SDS011;30245;51.966;6.292;2023-09-30T13:18:19;3.47;;;1.20;;
44536;SDS011;30245;51.966;6.292;2023-09-30T13:20:45;3.65;;;0.47;;
44536;SDS011;30245;51.966;6.292;2023-09-30T13:23:10;1.88;;;0.60;;
44536;SDS011;30245;51.966;6.292;2023-09-30T13:25:36;3.80;;;0.70;;
44536;SDS011;30245;51.966;6.292;2023-09-30T13:28:01;1.85;;;0.47;;
44536;SDS011;30245;51.966;6.292;2023-09-30T13:30:27;4.20;;;0.63;;
44536;SDS011;30245;51.966;6.292;2023-09-30T13:32:52;3.15;;;0.88;;
44536;SDS011;30245;51.966;6.292;2023-09-30T13:35:18;3.83;;;0.60;;
44536;SDS011;30245;51.966;6.292;2023-09-30T13:37:44;1.55;;;0.60;;
44536;SDS011;30245;51.966;6.292;2023-09-30T13:40:10;3.28;;;0.60;;
44536;SDS011;30245;51.966;6.292;2023-09-30T13:42:38;1.83;;;0.60;;
44536;SDS011;30245;51.966;6.292;2023-09-30T13:45:04;2.78;;;0.70;;
44536;SDS011;30245;51.966;6.292;2023-09-30T13:47:31;4.65;;;0.65;;
44536;SDS011;30245;51.966;6.292;2023-09-30T13:49:57;2.90;;;0.30;;
44536;SDS011;30245;51.966;6.292;2023-09-30T13:52:23;4.60;;;0.60;;
44536;SDS011;30245;51.966;6.292;2023-09-30T13:54:50;2.05;;;0.40;;
44536;SDS011;30245;51.966;6.292;2023-09-30T13:57:15;3.35;;;0.50;;
44536;SDS011;30245;51.966;6.292;2023-09-30T13:59:41;3.33;;;0.60;;
44536;SDS011;30245;51.966;6.292;2023-09-30T14:02:09;4.10;;;0.50;;
44536;SDS011;30245;51.966;6.292;2023-09-30T14:04:35;8.60;;;1.10;;
44536;SDS011;30245;51.966;6.292;2023-09-30T14:07:01;2.08;;;0.70;;
44536;SDS011;30245;51.966;6.292;2023-09-30T14:09:27;3.22;;;0.68;;
44536;SDS011;30245;51.966;6.292;2023-09-30T14:11:54;6.05;;;1.33;;
44536;SDS011;30245;51.966;6.292;2023-09-30T14:14:20;3.03;;;0.80;;
44536;SDS011;30245;51.966;6.292;2023-09-30T14:16:45;3.42;;;0.50;;
44536;SDS011;30245;51.966;6.292;2023-09-30T14:19:12;1.45;;;0.60;;
44536;SDS011;30245;51.966;6.292;2023-09-30T14:21:38;2.97;;;0.57;;
44536;SDS011;30245;51.966;6.292;2023-09-30T14:24:05;4.38;;;0.90;;
44536;SDS011;30245;51.966;6.292;2023-09-30T14:26:31;3.67;;;0.63;;
44536;SDS011;30245;51.966;6.292;2023-09-30T14:28:57;2.50;;;0.50;;
44536;SDS011;30245;51.966;6.292;2023-09-30T14:31:22;1.98;;;0.60;;
44536;SDS011;30245;51.966;6.292;2023-09-30T14:33:48;3.33;;;0.60;;
44536;SDS011;30245;51.966;6.292;2023-09-30T14:36:15;3.28;;;0.50;;
44536;SDS011;30245;51.966;6.292;2023-09-30T14:38:42;4.63;;;0.43;;
44536;SDS011;30245;51.966;6.292;2023-09-30T14:41:08;1.67;;;0.57;;
44536;SDS011;30245;51.966;6.292;2023-09-30T14:43:34;2.10;;;0.50;;
44536;SDS011;30245;51.966;6.292;2023-09-30T14:46:03;2.15;;;0.60;;
44536;SDS011;30245;51.966;6.292;2023-09-30T14:48:29;3.50;;;0.88;;
44536;SDS011;30245;51.966;6.292;2023-09-30T14:50:55;2.47;;;0.82;;
44536;SDS011;30245;51.966;6.292;2023-09-30T14:53:21;2.15;;;0.75;;
44536;SDS011;30245;51.966;6.292;2023-09-30T14:55:47;2.58;;;0.85;;
44536;SDS011;30245;51.966;6.292;2023-09-30T14:58:13;1.70;;;0.50;;
44536;SDS011;30245;51.966;6.292;2023-09-30T15:00:39;2.38;;;0.93;;
44536;SDS011;30245;51.966;6.292;2023-09-30T15:03:05;3.70;;;1.13;;
44536;SDS011;30245;51.966;6.292;2023-09-30T15:05:31;1.70;;;0.50;;
44536;SDS011;30245;51.966;6.292;2023-09-30T15:07:57;2.38;;;0.73;;
44536;SDS011;30245;51.966;6.292;2023-09-30T15:10:24;2.78;;;0.80;;
44536;SDS011;30245;51.966;6.292;2023-09-30T15:12:50;2.13;;;0.80;;
44536;SDS011;30245;51.966;6.292;2023-09-30T15:15:16;4.22;;;0.70;;